sensor_id;sensor_type;location;lat;lon;timestamp;temperature;humidity
15717;DHT22;7960;50.908;4.204;2022-12-11T00:00:44;1.40;99.90
15717;DHT22;7960;50.908;4.204;2022-12-11T00:03:11;1.40;99.90
15717;DHT22;7960;50.908;4.204;2022-12-11T00:05:38;1.40;99.90
15717;DHT22;7960;50.908;4.204;2022-12-11T00:08:05;1.50;99.90
15717;DHT22;7960;50.908;4.204;2022-12-11T00:10:32;1.40;99.90
15717;DHT22;7960;50.908;4.204;2022-12-11T00:13:01;1.40;99.90
15717;DHT22;7960;50.908;4.204;2022-12-11T00:15:28;1.50;99.90
15717;DHT22;7960;50.908;4.204;2022-12-11T00:17:55;1.40;99.90
15717;DHT22;7960;50.908;4.204;2022-12-11T00:20:22;1.40;99.90
15717;DHT22;7960;50.908;4.204;2022-12-11T00:22:49;1.40;99.90
15717;DHT22;7960;50.908;4.204;2022-12-11T00:25:16;1.40;99.90
15717;DHT22;7960;50.908;4.204;2022-12-11T00:27:44;1.50;99.90
15717;DHT22;7960;50.908;4.204;2022-12-11T00:30:13;1.40;99.90
15717;DHT22;7960;50.908;4.204;2022-12-11T00:32:40;1.50;99.90
15717;DHT22;7960;50.908;4.204;2022-12-11T00:35:08;1.40;99.90
15717;DHT22;7960;50.908;4.204;2022-12-11T00:37:35;1.40;99.90
15717;DHT22;7960;50.908;4.204;2022-12-11T00:40:02;1.40;99.90
15717;DHT22;7960;50.908;4.204;2022-12-11T00:42:29;1.40;99.90
15717;DHT22;7960;50.908;4.204;2022-12-11T00:44:56;1.40;99.90
15717;DHT22;7960;50.908;4.204;2022-12-11T00:47:24;1.40;99.90
15717;DHT22;7960;50.908;4.204;2022-12-11T00:49:51;1.50;99.90
15717;DHT22;7960;50.908;4.204;2022-12-11T00:52:18;1.50;99.90
15717;DHT22;7960;50.908;4.204;2022-12-11T00:54:45;1.50;99.90
15717;DHT22;7960;50.908;4.204;2022-12-11T00:57:12;1.40;99.90
15717;DHT22;7960;50.908;4.204;2022-12-11T00:59:39;1.50;99.90
15717;DHT22;7960;50.908;4.204;2022-12-11T01:02:05;1.40;99.90
15717;DHT22;7960;50.908;4.204;2022-12-11T01:04:36;1.50;99.90
15717;DHT22;7960;50.908;4.204;2022-12-11T01:07:02;1.50;99.90
15717;DHT22;7960;50.908;4.204;2022-12-11T01:09:29;1.50;99.90
15717;DHT22;7960;50.908;4.204;2022-12-11T01:12:13;1.50;99.90
15717;DHT22;7960;50.908;4.204;2022-12-11T01:14:40;1.40;99.90
15717;DHT22;7960;50.908;4.204;2022-12-11T01:17:07;1.30;99.90
15717;DHT22;7960;50.908;4.204;2022-12-11T01:19:35;1.30;99.90
15717;DHT22;7960;50.908;4.204;2022-12-11T01:22:03;1.40;99.90
15717;DHT22;7960;50.908;4.204;2022-12-11T01:24:30;1.40;99.90
15717;DHT22;7960;50.908;4.204;2022-12-11T01:26:57;1.50;99.90
15717;DHT22;7960;50.908;4.204;2022-12-11T01:29:24;1.50;99.90
15717;DHT22;7960;50.908;4.204;2022-12-11T01:31:51;1.50;99.90
15717;DHT22;7960;50.908;4.204;2022-12-11T01:34:17;1.50;99.90
15717;DHT22;7960;50.908;4.204;2022-12-11T01:36:46;1.40;99.90
15717;DHT22;7960;50.908;4.204;2022-12-11T01:39:13;1.50;99.90
15717;DHT22;7960;50.908;4.204;2022-12-11T01:41:39;1.50;99.90
15717;DHT22;7960;50.908;4.204;2022-12-11T01:45:06;1.40;99.90
15717;DHT22;7960;50.908;4.204;2022-12-11T01:46:54;1.50;99.90
15717;DHT22;7960;50.908;4.204;2022-12-11T01:49:24;1.50;99.90
15717;DHT22;7960;50.908;4.204;2022-12-11T01:51:58;1.60;99.90
15717;DHT22;7960;50.908;4.204;2022-12-11T01:54:27;1.60;99.90
15717;DHT22;7960;50.908;4.204;2022-12-11T01:56:57;1.60;99.90
15717;DHT22;7960;50.908;4.204;2022-12-11T01:59:28;1.60;99.90
15717;DHT22;7960;50.908;4.204;2022-12-11T02:02:01;1.60;99.90
15717;DHT22;7960;50.908;4.204;2022-12-11T02:04:29;1.60;99.90
15717;DHT22;7960;50.908;4.204;2022-12-11T02:06:58;1.60;99.90
15717;DHT22;7960;50.908;4.204;2022-12-11T02:09:28;1.60;99.90
15717;DHT22;7960;50.908;4.204;2022-12-11T02:12:02;1.70;99.90
15717;DHT22;7960;50.908;4.204;2022-12-11T02:14:37;1.60;99.90
15717;DHT22;7960;50.908;4.204;2022-12-11T02:17:10;1.60;99.90
15717;DHT22;7960;50.908;4.204;2022-12-11T02:19:51;1.70;99.90
15717;DHT22;7960;50.908;4.204;2022-12-11T02:22:37;1.70;99.90
15717;DHT22;7960;50.908;4.204;2022-12-11T02:25:14;1.60;99.90
15717;DHT22;7960;50.908;4.204;2022-12-11T02:27:46;1.60;99.90
15717;DHT22;7960;50.908;4.204;2022-12-11T02:30:16;1.70;99.90
15717;DHT22;7960;50.908;4.204;2022-12-11T02:32:46;1.70;99.90
15717;DHT22;7960;50.908;4.204;2022-12-11T02:35:17;1.60;99.90
15717;DHT22;7960;50.908;4.204;2022-12-11T02:37:47;1.60;99.90
15717;DHT22;7960;50.908;4.204;2022-12-11T02:40:20;1.70;99.90
15717;DHT22;7960;50.908;4.204;2022-12-11T02:42:48;1.70;99.90
15717;DHT22;7960;50.908;4.204;2022-12-11T02:45:18;1.80;99.90
15717;DHT22;7960;50.908;4.204;2022-12-11T02:47:47;1.80;99.90
15717;DHT22;7960;50.908;4.204;2022-12-11T02:50:17;1.70;99.90
15717;DHT22;7960;50.908;4.204;2022-12-11T02:52:46;1.70;99.90
15717;DHT22;7960;50.908;4.204;2022-12-11T02:55:14;1.70;99.90
15717;DHT22;7960;50.908;4.204;2022-12-11T02:57:46;1.70;99.90
15717;DHT22;7960;50.908;4.204;2022-12-11T03:00:14;1.60;99.90
15717;DHT22;7960;50.908;4.204;2022-12-11T03:02:44;1.60;99.90
15717;DHT22;7960;50.908;4.204;2022-12-11T03:05:12;1.60;99.90
15717;DHT22;7960;50.908;4.204;2022-12-11T03:07:41;1.60;99.90
15717;DHT22;7960;50.908;4.204;2022-12-11T03:10:12;1.50;99.90
15717;DHT22;7960;50.908;4.204;2022-12-11T03:12:42;1.50;99.90
15717;DHT22;7960;50.908;4.204;2022-12-11T03:15:12;1.60;99.90
15717;DHT22;7960;50.908;4.204;2022-12-11T03:17:48;1.60;99.90
15717;DHT22;7960;50.908;4.204;2022-12-11T03:20:27;1.50;99.90
15717;DHT22;7960;50.908;4.204;2022-12-11T03:23:04;1.50;99.90
15717;DHT22;7960;50.908;4.204;2022-12-11T03:25:41;1.50;99.90
15717;DHT22;7960;50.908;4.204;2022-12-11T03:28:11;1.50;99.90
15717;DHT22;7960;50.908;4.204;2022-12-11T03:30:40;1.60;99.90
15717;DHT22;7960;50.908;4.204;2022-12-11T03:33:12;1.60;99.90
15717;DHT22;7960;50.908;4.204;2022-12-11T03:35:41;1.60;99.90
15717;DHT22;7960;50.908;4.204;2022-12-11T03:38:12;1.60;99.90
15717;DHT22;7960;50.908;4.204;2022-12-11T03:40:42;1.60;99.90
15717;DHT22;7960;50.908;4.204;2022-12-11T03:43:12;1.60;99.90
15717;DHT22;7960;50.908;4.204;2022-12-11T03:45:41;1.50;99.90
15717;DHT22;7960;50.908;4.204;2022-12-11T03:48:10;1.50;99.90
15717;DHT22;7960;50.908;4.204;2022-12-11T03:50:39;1.60;99.90
15717;DHT22;7960;50.908;4.204;2022-12-11T03:53:07;1.50;99.90
15717;DHT22;7960;50.908;4.204;2022-12-11T03:55:35;1.60;99.90
15717;DHT22;7960;50.908;4.204;2022-12-11T03:58:03;1.60;99.90
15717;DHT22;7960;50.908;4.204;2022-12-11T04:00:30;1.50;99.90
15717;DHT22;7960;50.908;4.204;2022-12-11T04:02:57;1.50;99.90
15717;DHT22;7960;50.908;4.204;2022-12-11T04:05:43;1.50;99.90
15717;DHT22;7960;50.908;4.204;2022-12-11T04:08:10;1.50;99.90
15717;DHT22;7960;50.908;4.204;2022-12-11T04:10:37;1.60;99.90
15717;DHT22;7960;50.908;4.204;2022-12-11T04:13:04;1.60;99.90
15717;DHT22;7960;50.908;4.204;2022-12-11T04:15:30;1.70;99.90
15717;DHT22;7960;50.908;4.204;2022-12-11T04:17:56;1.70;99.90
15717;DHT22;7960;50.908;4.204;2022-12-11T04:20:42;1.70;99.90
15717;DHT22;7960;50.908;4.204;2022-12-11T04:23:26;1.60;99.90
15717;DHT22;7960;50.908;4.204;2022-12-11T04:26:13;1.60;99.90
15717;DHT22;7960;50.908;4.204;2022-12-11T04:28:40;1.70;99.90
15717;DHT22;7960;50.908;4.204;2022-12-11T04:31:11;1.80;99.90
15717;DHT22;7960;50.908;4.204;2022-12-11T04:33:38;1.80;99.90
15717;DHT22;7960;50.908;4.204;2022-12-11T04:36:07;1.70;99.90
15717;DHT22;7960;50.908;4.204;2022-12-11T04:38:35;1.60;99.90
15717;DHT22;7960;50.908;4.204;2022-12-11T04:41:05;1.70;99.90
15717;DHT22;7960;50.908;4.204;2022-12-11T04:43:32;1.70;99.90
15717;DHT22;7960;50.908;4.204;2022-12-11T04:46:02;1.70;99.90
15717;DHT22;7960;50.908;4.204;2022-12-11T04:48:29;1.60;99.90
15717;DHT22;7960;50.908;4.204;2022-12-11T04:50:56;1.60;99.90
15717;DHT22;7960;50.908;4.204;2022-12-11T04:53:25;1.60;99.90
15717;DHT22;7960;50.908;4.204;2022-12-11T04:55:52;1.60;99.90
15717;DHT22;7960;50.908;4.204;2022-12-11T04:58:20;1.70;99.90
15717;DHT22;7960;50.908;4.204;2022-12-11T05:00:47;1.60;99.90
15717;DHT22;7960;50.908;4.204;2022-12-11T05:03:15;1.70;99.90
15717;DHT22;7960;50.908;4.204;2022-12-11T05:05:46;1.70;99.90
15717;DHT22;7960;50.908;4.204;2022-12-11T05:08:13;1.70;99.90
15717;DHT22;7960;50.908;4.204;2022-12-11T05:10:41;1.70;99.90
15717;DHT22;7960;50.908;4.204;2022-12-11T05:13:08;1.70;99.90
15717;DHT22;7960;50.908;4.204;2022-12-11T05:15:38;1.60;99.90
15717;DHT22;7960;50.908;4.204;2022-12-11T05:18:05;1.60;99.90
15717;DHT22;7960;50.908;4.204;2022-12-11T05:20:32;1.60;99.90
15717;DHT22;7960;50.908;4.204;2022-12-11T05:22:59;1.70;99.90
15717;DHT22;7960;50.908;4.204;2022-12-11T05:25:26;1.60;99.90
15717;DHT22;7960;50.908;4.204;2022-12-11T05:27:54;1.70;99.90
15717;DHT22;7960;50.908;4.204;2022-12-11T05:30:21;1.50;99.90
15717;DHT22;7960;50.908;4.204;2022-12-11T05:32:48;1.50;99.90
15717;DHT22;7960;50.908;4.204;2022-12-11T05:35:15;1.60;99.90
15717;DHT22;7960;50.908;4.204;2022-12-11T05:37:42;1.50;99.90
15717;DHT22;7960;50.908;4.204;2022-12-11T05:40:10;1.60;99.90
15717;DHT22;7960;50.908;4.204;2022-12-11T05:42:37;1.60;99.90
15717;DHT22;7960;50.908;4.204;2022-12-11T05:45:06;1.60;99.90
15717;DHT22;7960;50.908;4.204;2022-12-11T05:47:33;1.50;99.90
15717;DHT22;7960;50.908;4.204;2022-12-11T05:50:00;1.40;99.90
15717;DHT22;7960;50.908;4.204;2022-12-11T05:52:27;1.50;99.90
15717;DHT22;7960;50.908;4.204;2022-12-11T05:54:54;1.40;99.90
15717;DHT22;7960;50.908;4.204;2022-12-11T05:57:21;1.40;99.90
15717;DHT22;7960;50.908;4.204;2022-12-11T05:59:48;1.40;99.90
15717;DHT22;7960;50.908;4.204;2022-12-11T06:02:16;1.50;99.90
15717;DHT22;7960;50.908;4.204;2022-12-11T06:04:43;1.50;99.90
15717;DHT22;7960;50.908;4.204;2022-12-11T06:07:10;1.40;99.90
15717;DHT22;7960;50.908;4.204;2022-12-11T06:09:37;1.40;99.90
15717;DHT22;7960;50.908;4.204;2022-12-11T06:12:04;1.50;99.90
15717;DHT22;7960;50.908;4.204;2022-12-11T06:14:31;1.40;99.90
15717;DHT22;7960;50.908;4.204;2022-12-11T06:16:58;1.40;99.90
15717;DHT22;7960;50.908;4.204;2022-12-11T06:19:27;1.40;99.90
15717;DHT22;7960;50.908;4.204;2022-12-11T06:21:54;1.40;99.90
15717;DHT22;7960;50.908;4.204;2022-12-11T06:24:21;1.40;99.90
15717;DHT22;7960;50.908;4.204;2022-12-11T06:26:48;1.40;99.90
15717;DHT22;7960;50.908;4.204;2022-12-11T06:29:14;1.40;99.90
15717;DHT22;7960;50.908;4.204;2022-12-11T06:31:41;1.30;99.90
15717;DHT22;7960;50.908;4.204;2022-12-11T06:34:10;1.30;99.90
15717;DHT22;7960;50.908;4.204;2022-12-11T06:36:39;1.20;99.90
15717;DHT22;7960;50.908;4.204;2022-12-11T06:39:06;1.20;99.90
15717;DHT22;7960;50.908;4.204;2022-12-11T06:41:33;1.40;99.90
15717;DHT22;7960;50.908;4.204;2022-12-11T06:44:00;1.40;99.90
15717;DHT22;7960;50.908;4.204;2022-12-11T06:46:27;1.50;99.90
15717;DHT22;7960;50.908;4.204;2022-12-11T06:48:54;1.50;99.90
15717;DHT22;7960;50.908;4.204;2022-12-11T06:51:22;1.50;99.90
15717;DHT22;7960;50.908;4.204;2022-12-11T06:53:51;1.50;99.90
15717;DHT22;7960;50.908;4.204;2022-12-11T06:56:18;1.40;99.90
15717;DHT22;7960;50.908;4.204;2022-12-11T06:58:46;1.30;99.90
15717;DHT22;7960;50.908;4.204;2022-12-11T07:01:14;1.40;99.90
15717;DHT22;7960;50.908;4.204;2022-12-11T07:03:43;1.40;99.90
15717;DHT22;7960;50.908;4.204;2022-12-11T07:06:10;1.50;99.90
15717;DHT22;7960;50.908;4.204;2022-12-11T07:08:37;1.40;99.90
15717;DHT22;7960;50.908;4.204;2022-12-11T07:11:08;1.40;99.90
15717;DHT22;7960;50.908;4.204;2022-12-11T07:13:35;1.40;99.90
15717;DHT22;7960;50.908;4.204;2022-12-11T07:16:03;1.20;99.90
15717;DHT22;7960;50.908;4.204;2022-12-11T07:18:35;1.20;99.90
15717;DHT22;7960;50.908;4.204;2022-12-11T07:21:02;1.20;99.90
15717;DHT22;7960;50.908;4.204;2022-12-11T07:23:29;1.20;99.90
15717;DHT22;7960;50.908;4.204;2022-12-11T07:25:56;1.20;99.90
15717;DHT22;7960;50.908;4.204;2022-12-11T07:28:24;1.20;99.90
15717;DHT22;7960;50.908;4.204;2022-12-11T07:30:51;1.20;99.90
15717;DHT22;7960;50.908;4.204;2022-12-11T07:33:18;1.20;99.90
15717;DHT22;7960;50.908;4.204;2022-12-11T07:35:45;1.20;99.90
15717;DHT22;7960;50.908;4.204;2022-12-11T07:38:12;1.20;99.90
15717;DHT22;7960;50.908;4.204;2022-12-11T07:40:39;1.20;99.90
15717;DHT22;7960;50.908;4.204;2022-12-11T07:43:06;1.30;99.90
15717;DHT22;7960;50.908;4.204;2022-12-11T07:45:34;1.20;99.90
15717;DHT22;7960;50.908;4.204;2022-12-11T07:48:01;1.20;99.90
15717;DHT22;7960;50.908;4.204;2022-12-11T07:50:28;1.20;99.90
15717;DHT22;7960;50.908;4.204;2022-12-11T07:52:54;1.20;99.90
15717;DHT22;7960;50.908;4.204;2022-12-11T07:55:21;1.10;99.90
15717;DHT22;7960;50.908;4.204;2022-12-11T07:57:48;1.20;99.90
15717;DHT22;7960;50.908;4.204;2022-12-11T08:00:15;1.20;99.90
15717;DHT22;7960;50.908;4.204;2022-12-11T08:02:44;1.30;99.90
15717;DHT22;7960;50.908;4.204;2022-12-11T08:05:11;1.40;99.90
15717;DHT22;7960;50.908;4.204;2022-12-11T08:07:37;1.40;99.90
15717;DHT22;7960;50.908;4.204;2022-12-11T08:10:05;1.40;99.90
15717;DHT22;7960;50.908;4.204;2022-12-11T08:12:32;1.40;99.90
15717;DHT22;7960;50.908;4.204;2022-12-11T08:14:59;1.40;99.90
15717;DHT22;7960;50.908;4.204;2022-12-11T08:17:26;1.30;99.90
15717;DHT22;7960;50.908;4.204;2022-12-11T08:19:55;1.20;99.90
15717;DHT22;7960;50.908;4.204;2022-12-11T08:22:22;1.20;99.90
15717;DHT22;7960;50.908;4.204;2022-12-11T08:24:49;1.20;99.90
15717;DHT22;7960;50.908;4.204;2022-12-11T08:27:16;1.30;99.90
15717;DHT22;7960;50.908;4.204;2022-12-11T08:29:44;1.30;99.90
15717;DHT22;7960;50.908;4.204;2022-12-11T08:32:12;1.20;99.90
15717;DHT22;7960;50.908;4.204;2022-12-11T08:34:41;1.30;99.90
15717;DHT22;7960;50.908;4.204;2022-12-11T08:37:09;1.30;99.90
15717;DHT22;7960;50.908;4.204;2022-12-11T08:39:36;1.20;99.90
15717;DHT22;7960;50.908;4.204;2022-12-11T08:42:03;1.20;99.90
15717;DHT22;7960;50.908;4.204;2022-12-11T08:44:30;1.30;99.90
15717;DHT22;7960;50.908;4.204;2022-12-11T08:46:57;1.30;99.90
15717;DHT22;7960;50.908;4.204;2022-12-11T08:49:24;1.30;99.90
15717;DHT22;7960;50.908;4.204;2022-12-11T08:51:51;1.30;99.90
15717;DHT22;7960;50.908;4.204;2022-12-11T08:54:20;1.30;99.90
15717;DHT22;7960;50.908;4.204;2022-12-11T08:56:47;1.20;99.90
15717;DHT22;7960;50.908;4.204;2022-12-11T08:59:14;1.30;99.90
15717;DHT22;7960;50.908;4.204;2022-12-11T09:01:43;1.40;99.90
15717;DHT22;7960;50.908;4.204;2022-12-11T09:04:10;1.40;99.90
15717;DHT22;7960;50.908;4.204;2022-12-11T09:06:37;1.30;99.90
15717;DHT22;7960;50.908;4.204;2022-12-11T09:09:05;1.30;99.90
15717;DHT22;7960;50.908;4.204;2022-12-11T09:11:35;1.20;99.90
15717;DHT22;7960;50.908;4.204;2022-12-11T09:14:03;1.20;99.90
15717;DHT22;7960;50.908;4.204;2022-12-11T09:16:30;1.20;99.90
15717;DHT22;7960;50.908;4.204;2022-12-11T09:18:58;1.30;99.90
15717;DHT22;7960;50.908;4.204;2022-12-11T09:21:27;1.30;99.90
15717;DHT22;7960;50.908;4.204;2022-12-11T09:23:55;1.30;99.90
15717;DHT22;7960;50.908;4.204;2022-12-11T09:26:23;1.30;99.90
15717;DHT22;7960;50.908;4.204;2022-12-11T09:28:51;1.40;99.90
15717;DHT22;7960;50.908;4.204;2022-12-11T09:31:21;1.30;99.90
15717;DHT22;7960;50.908;4.204;2022-12-11T09:33:49;1.30;99.90
15717;DHT22;7960;50.908;4.204;2022-12-11T09:36:16;1.40;99.90
15717;DHT22;7960;50.908;4.204;2022-12-11T09:38:43;1.40;99.90
15717;DHT22;7960;50.908;4.204;2022-12-11T09:41:31;1.50;99.90
15717;DHT22;7960;50.908;4.204;2022-12-11T09:44:12;1.50;99.90
15717;DHT22;7960;50.908;4.204;2022-12-11T09:46:42;1.40;99.90
15717;DHT22;7960;50.908;4.204;2022-12-11T09:49:20;1.50;99.90
15717;DHT22;7960;50.908;4.204;2022-12-11T09:51:52;1.50;99.90
15717;DHT22;7960;50.908;4.204;2022-12-11T09:54:24;1.60;99.90
15717;DHT22;7960;50.908;4.204;2022-12-11T09:56:57;1.60;99.90
15717;DHT22;7960;50.908;4.204;2022-12-11T09:59:32;1.60;99.90
15717;DHT22;7960;50.908;4.204;2022-12-11T10:02:07;1.60;99.90
15717;DHT22;7960;50.908;4.204;2022-12-11T10:04:49;1.60;99.90
15717;DHT22;7960;50.908;4.204;2022-12-11T10:07:23;1.60;99.90
15717;DHT22;7960;50.908;4.204;2022-12-11T10:09:58;1.60;99.90
15717;DHT22;7960;50.908;4.204;2022-12-11T10:12:36;1.60;99.90
15717;DHT22;7960;50.908;4.204;2022-12-11T10:15:16;1.60;99.90
15717;DHT22;7960;50.908;4.204;2022-12-11T10:17:46;1.50;99.90
15717;DHT22;7960;50.908;4.204;2022-12-11T10:20:23;1.50;99.90
15717;DHT22;7960;50.908;4.204;2022-12-11T10:22:53;1.50;99.90
15717;DHT22;7960;50.908;4.204;2022-12-11T10:25:24;1.60;99.90
15717;DHT22;7960;50.908;4.204;2022-12-11T10:27:52;1.60;99.90
15717;DHT22;7960;50.908;4.204;2022-12-11T10:30:23;1.60;99.90
15717;DHT22;7960;50.908;4.204;2022-12-11T10:32:53;1.70;99.90
15717;DHT22;7960;50.908;4.204;2022-12-11T10:35:30;1.60;99.90
15717;DHT22;7960;50.908;4.204;2022-12-11T10:38:09;1.50;99.90
15717;DHT22;7960;50.908;4.204;2022-12-11T10:40:38;1.70;99.90
15717;DHT22;7960;50.908;4.204;2022-12-11T10:43:06;1.70;99.90
15717;DHT22;7960;50.908;4.204;2022-12-11T10:45:34;1.70;99.90
15717;DHT22;7960;50.908;4.204;2022-12-11T10:48:03;1.90;99.90
15717;DHT22;7960;50.908;4.204;2022-12-11T10:50:30;2.20;99.90
15717;DHT22;7960;50.908;4.204;2022-12-11T10:52:57;2.30;99.90
15717;DHT22;7960;50.908;4.204;2022-12-11T10:55:27;2.40;99.90
15717;DHT22;7960;50.908;4.204;2022-12-11T10:57:57;2.40;99.90
15717;DHT22;7960;50.908;4.204;2022-12-11T11:00:38;2.60;99.90
15717;DHT22;7960;50.908;4.204;2022-12-11T11:03:17;2.60;99.90
15717;DHT22;7960;50.908;4.204;2022-12-11T11:05:45;2.60;99.90
15717;DHT22;7960;50.908;4.204;2022-12-11T11:08:15;2.40;99.90
15717;DHT22;7960;50.908;4.204;2022-12-11T11:10:52;2.40;99.90
15717;DHT22;7960;50.908;4.204;2022-12-11T11:13:21;2.10;99.90
15717;DHT22;7960;50.908;4.204;2022-12-11T11:15:50;2.30;99.90
15717;DHT22;7960;50.908;4.204;2022-12-11T11:18:25;2.20;99.90
15717;DHT22;7960;50.908;4.204;2022-12-11T11:20:53;2.40;99.90
15717;DHT22;7960;50.908;4.204;2022-12-11T11:23:21;2.50;99.90
15717;DHT22;7960;50.908;4.204;2022-12-11T11:25:50;2.80;99.90
15717;DHT22;7960;50.908;4.204;2022-12-11T11:28:19;2.80;99.90
15717;DHT22;7960;50.908;4.204;2022-12-11T11:30:58;3.00;99.90
15717;DHT22;7960;50.908;4.204;2022-12-11T11:33:26;3.10;99.90
15717;DHT22;7960;50.908;4.204;2022-12-11T11:35:56;2.90;99.90
15717;DHT22;7960;50.908;4.204;2022-12-11T11:38:27;2.70;99.90
15717;DHT22;7960;50.908;4.204;2022-12-11T11:40:59;2.70;99.90
15717;DHT22;7960;50.908;4.204;2022-12-11T11:43:36;2.70;99.90
15717;DHT22;7960;50.908;4.204;2022-12-11T11:46:11;2.70;99.90
15717;DHT22;7960;50.908;4.204;2022-12-11T11:48:44;2.60;99.90
15717;DHT22;7960;50.908;4.204;2022-12-11T11:51:15;2.40;99.90
15717;DHT22;7960;50.908;4.204;2022-12-11T11:53:47;2.40;99.90
15717;DHT22;7960;50.908;4.204;2022-12-11T11:56:24;2.50;99.90
15717;DHT22;7960;50.908;4.204;2022-12-11T11:58:59;2.40;99.90
15717;DHT22;7960;50.908;4.204;2022-12-11T12:01:28;2.50;99.90
15717;DHT22;7960;50.908;4.204;2022-12-11T12:03:56;2.60;99.90
15717;DHT22;7960;50.908;4.204;2022-12-11T12:06:35;2.70;99.90
15717;DHT22;7960;50.908;4.204;2022-12-11T12:09:13;2.60;99.90
15717;DHT22;7960;50.908;4.204;2022-12-11T12:11:49;2.50;99.90
15717;DHT22;7960;50.908;4.204;2022-12-11T12:14:21;2.40;99.90
15717;DHT22;7960;50.908;4.204;2022-12-11T12:16:59;2.50;99.90
15717;DHT22;7960;50.908;4.204;2022-12-11T12:19:44;2.40;99.90
15717;DHT22;7960;50.908;4.204;2022-12-11T12:22:25;2.30;99.90
15717;DHT22;7960;50.908;4.204;2022-12-11T12:25:01;2.40;99.90
15717;DHT22;7960;50.908;4.204;2022-12-11T12:27:38;2.30;99.90
15717;DHT22;7960;50.908;4.204;2022-12-11T12:30:13;2.40;99.90
15717;DHT22;7960;50.908;4.204;2022-12-11T12:32:51;2.30;99.90
15717;DHT22;7960;50.908;4.204;2022-12-11T12:35:31;2.30;99.90
15717;DHT22;7960;50.908;4.204;2022-12-11T12:38:06;2.40;99.90
15717;DHT22;7960;50.908;4.204;2022-12-11T12:40:39;2.30;99.90
15717;DHT22;7960;50.908;4.204;2022-12-11T12:43:41;2.40;99.90
15717;DHT22;7960;50.908;4.204;2022-12-11T12:46:20;2.30;99.90
15717;DHT22;7960;50.908;4.204;2022-12-11T12:48:53;2.20;99.90
15717;DHT22;7960;50.908;4.204;2022-12-11T12:51:21;2.10;99.90
15717;DHT22;7960;50.908;4.204;2022-12-11T12:53:52;2.20;99.90
15717;DHT22;7960;50.908;4.204;2022-12-11T12:56:20;2.10;99.90
15717;DHT22;7960;50.908;4.204;2022-12-11T12:58:48;2.00;99.90
15717;DHT22;7960;50.908;4.204;2022-12-11T13:01:17;2.00;99.90
15717;DHT22;7960;50.908;4.204;2022-12-11T13:03:55;2.00;99.90
15717;DHT22;7960;50.908;4.204;2022-12-11T13:06:35;2.00;99.90
15717;DHT22;7960;50.908;4.204;2022-12-11T13:09:15;2.00;99.90
15717;DHT22;7960;50.908;4.204;2022-12-11T13:11:43;1.90;99.90
15717;DHT22;7960;50.908;4.204;2022-12-11T13:14:23;2.00;99.90
15717;DHT22;7960;50.908;4.204;2022-12-11T13:17:05;2.10;99.90
15717;DHT22;7960;50.908;4.204;2022-12-11T13:19:34;2.20;99.90
15717;DHT22;7960;50.908;4.204;2022-12-11T13:22:03;2.10;99.90
15717;DHT22;7960;50.908;4.204;2022-12-11T13:24:31;1.90;99.90
15717;DHT22;7960;50.908;4.204;2022-12-11T13:27:21;2.00;99.90
15717;DHT22;7960;50.908;4.204;2022-12-11T13:29:48;1.90;99.90
15717;DHT22;7960;50.908;4.204;2022-12-11T13:32:28;1.80;99.90
15717;DHT22;7960;50.908;4.204;2022-12-11T13:34:58;1.90;99.90
15717;DHT22;7960;50.908;4.204;2022-12-11T13:37:28;1.90;99.90
15717;DHT22;7960;50.908;4.204;2022-12-11T13:39:56;1.80;99.90
15717;DHT22;7960;50.908;4.204;2022-12-11T13:42:28;1.80;99.90
15717;DHT22;7960;50.908;4.204;2022-12-11T13:44:57;1.70;99.90
15717;DHT22;7960;50.908;4.204;2022-12-11T13:47:25;1.70;99.90
15717;DHT22;7960;50.908;4.204;2022-12-11T13:49:54;1.80;99.90
15717;DHT22;7960;50.908;4.204;2022-12-11T13:52:24;1.70;99.90
15717;DHT22;7960;50.908;4.204;2022-12-11T13:54:53;1.80;99.90
15717;DHT22;7960;50.908;4.204;2022-12-11T13:57:22;1.70;99.90
15717;DHT22;7960;50.908;4.204;2022-12-11T13:59:51;1.70;99.90
15717;DHT22;7960;50.908;4.204;2022-12-11T14:02:22;1.80;99.90
15717;DHT22;7960;50.908;4.204;2022-12-11T14:04:52;1.70;99.90
15717;DHT22;7960;50.908;4.204;2022-12-11T14:07:25;1.80;99.90
15717;DHT22;7960;50.908;4.204;2022-12-11T14:09:58;1.70;99.90
15717;DHT22;7960;50.908;4.204;2022-12-11T14:12:26;1.60;99.90
15717;DHT22;7960;50.908;4.204;2022-12-11T14:14:55;1.60;99.90
15717;DHT22;7960;50.908;4.204;2022-12-11T14:17:26;1.60;99.90
15717;DHT22;7960;50.908;4.204;2022-12-11T14:19:57;1.50;99.90
15717;DHT22;7960;50.908;4.204;2022-12-11T14:22:28;1.50;99.90
15717;DHT22;7960;50.908;4.204;2022-12-11T14:24:56;1.60;99.90
15717;DHT22;7960;50.908;4.204;2022-12-11T14:27:25;1.60;99.90
15717;DHT22;7960;50.908;4.204;2022-12-11T14:29:53;1.60;99.90
15717;DHT22;7960;50.908;4.204;2022-12-11T14:32:27;1.60;99.90
15717;DHT22;7960;50.908;4.204;2022-12-11T14:34:57;1.60;99.90
15717;DHT22;7960;50.908;4.204;2022-12-11T14:37:26;1.70;99.90
15717;DHT22;7960;50.908;4.204;2022-12-11T14:39:59;1.70;99.90
15717;DHT22;7960;50.908;4.204;2022-12-11T14:42:30;1.70;99.90
15717;DHT22;7960;50.908;4.204;2022-12-11T14:45:04;1.60;99.90
15717;DHT22;7960;50.908;4.204;2022-12-11T14:47:35;1.60;99.90
15717;DHT22;7960;50.908;4.204;2022-12-11T14:50:05;1.70;99.90
15717;DHT22;7960;50.908;4.204;2022-12-11T14:52:37;1.70;99.90
15717;DHT22;7960;50.908;4.204;2022-12-11T14:55:07;1.70;99.90
15717;DHT22;7960;50.908;4.204;2022-12-11T14:57:35;1.70;99.90
15717;DHT22;7960;50.908;4.204;2022-12-11T15:00:06;1.60;99.90
15717;DHT22;7960;50.908;4.204;2022-12-11T15:02:34;1.60;99.90
15717;DHT22;7960;50.908;4.204;2022-12-11T15:05:14;1.70;99.90
15717;DHT22;7960;50.908;4.204;2022-12-11T15:07:54;1.70;99.90
15717;DHT22;7960;50.908;4.204;2022-12-11T15:10:27;1.70;99.90
15717;DHT22;7960;50.908;4.204;2022-12-11T15:12:56;1.70;99.90
15717;DHT22;7960;50.908;4.204;2022-12-11T15:15:24;1.80;99.90
15717;DHT22;7960;50.908;4.204;2022-12-11T15:17:51;1.70;99.90
15717;DHT22;7960;50.908;4.204;2022-12-11T15:20:22;1.80;99.90
15717;DHT22;7960;50.908;4.204;2022-12-11T15:22:52;1.80;99.90
15717;DHT22;7960;50.908;4.204;2022-12-11T15:25:21;1.90;99.90
15717;DHT22;7960;50.908;4.204;2022-12-11T15:27:50;2.00;99.90
15717;DHT22;7960;50.908;4.204;2022-12-11T15:30:29;2.00;99.90
15717;DHT22;7960;50.908;4.204;2022-12-11T15:33:18;2.10;99.90
15717;DHT22;7960;50.908;4.204;2022-12-11T15:35:56;2.20;99.90
15717;DHT22;7960;50.908;4.204;2022-12-11T15:38:30;2.20;99.90
15717;DHT22;7960;50.908;4.204;2022-12-11T15:40:58;2.10;99.90
15717;DHT22;7960;50.908;4.204;2022-12-11T15:43:25;2.00;99.90
15717;DHT22;7960;50.908;4.204;2022-12-11T15:45:53;2.00;99.90
15717;DHT22;7960;50.908;4.204;2022-12-11T15:48:20;2.00;99.90
15717;DHT22;7960;50.908;4.204;2022-12-11T15:50:47;1.90;99.90
15717;DHT22;7960;50.908;4.204;2022-12-11T15:53:14;1.80;99.90
15717;DHT22;7960;50.908;4.204;2022-12-11T15:55:42;1.90;99.90
15717;DHT22;7960;50.908;4.204;2022-12-11T15:58:14;1.70;99.90
15717;DHT22;7960;50.908;4.204;2022-12-11T16:00:42;1.70;99.90
15717;DHT22;7960;50.908;4.204;2022-12-11T16:03:11;1.70;99.90
15717;DHT22;7960;50.908;4.204;2022-12-11T16:05:39;1.90;99.90
15717;DHT22;7960;50.908;4.204;2022-12-11T16:08:06;1.90;99.90
15717;DHT22;7960;50.908;4.204;2022-12-11T16:10:33;1.70;99.90
15717;DHT22;7960;50.908;4.204;2022-12-11T16:13:02;1.80;99.90
15717;DHT22;7960;50.908;4.204;2022-12-11T16:15:29;1.90;99.90
15717;DHT22;7960;50.908;4.204;2022-12-11T16:18:00;1.90;99.90
15717;DHT22;7960;50.908;4.204;2022-12-11T16:20:28;1.80;99.90